Time;durP1;ratioP1;P1;durP2;ratioP2;P2;SDS_P1;SDS_P2;PMS_P1;PMS_P2;Temp;Humidity;BMP_temperature;BMP_pressure;BME280_temperature;BME280_humidity;BME280_pressure;Samples;Min_cycle;Max_cycle;Signal;HPM_P1;HPM_P2
2023/05/08 00:01:08;;;;;;;5.28;4.32;;;17.10;99.90;;;;;;4967539;28;20174;-67
2023/05/08 00:03:36;;;;;;;4.88;4.10;;;17.10;99.90;;;;;;4967327;28;20360;-68
2023/05/08 00:06:05;;;;;;;5.40;4.38;;;17.10;99.90;;;;;;4967729;28;20195;-67
2023/05/08 00:08:33;;;;;;;4.68;3.53;;;17.10;99.90;;;;;;4973069;28;20184;-68
2023/05/08 00:10:59;;;;;;;4.53;4.10;;;17.10;99.90;;;;;;4955623;29;20205;-68
2023/05/08 00:13:25;;;;;;;5.72;3.85;;;17.10;99.90;;;;;;4971973;28;20284;-67
2023/05/08 00:15:52;;;;;;;4.32;3.92;;;17.10;99.90;;;;;;4954505;29;20212;-68
2023/05/08 00:18:18;;;;;;;5.57;4.43;;;17.10;99.90;;;;;;4968602;28;20215;-68
2023/05/08 00:20:44;;;;;;;4.53;4.10;;;17.10;99.90;;;;;;4951142;29;20213;-67
2023/05/08 00:23:09;;;;;;;4.22;3.85;;;17.10;99.90;;;;;;4962185;28;20276;-68
2023/05/08 00:25:35;;;;;;;5.07;4.35;;;17.10;99.90;;;;;;4957725;28;20184;-67
2023/05/08 00:28:00;;;;;;;5.10;4.60;;;17.10;99.90;;;;;;4965613;28;20233;-67
2023/05/08 00:30:26;;;;;;;4.95;4.45;;;17.10;99.90;;;;;;4958244;29;20204;-68
2023/05/08 00:32:54;;;;;;;5.47;4.95;;;17.10;99.90;;;;;;4974754;28;20177;-68
2023/05/08 00:35:22;;;;;;;5.70;5.18;;;17.10;99.90;;;;;;4974683;28;20337;-68
2023/05/08 00:37:48;;;;;;;6.32;4.80;;;17.10;99.90;;;;;;4974237;28;20216;-68
2023/05/08 00:40:14;;;;;;;4.97;4.47;;;17.10;99.90;;;;;;4974398;28;20203;-69
2023/05/08 00:42:44;;;;;;;5.18;4.68;;;17.10;99.90;;;;;;4974632;28;20188;-68
2023/05/08 00:45:14;;;;;;;5.97;4.68;;;17.10;99.90;;;;;;4970308;28;20185;-67
2023/05/08 00:47:41;;;;;;;6.55;4.80;;;17.10;99.90;;;;;;4945699;29;20185;-68
2023/05/08 00:50:07;;;;;;;5.30;4.80;;;17.10;99.90;;;;;;4974476;28;20219;-67
2023/05/08 00:52:33;;;;;;;5.63;4.72;;;17.10;99.90;;;;;;4958440;29;20181;-67
2023/05/08 00:55:03;;;;;;;5.35;4.85;;;17.10;99.90;;;;;;4974202;28;20273;-67
2023/05/08 00:57:31;;;;;;;4.93;4.43;;;17.10;99.90;;;;;;4964723;28;20492;-68
2023/05/08 01:00:00;;;;;;;5.47;4.70;;;17.10;99.90;;;;;;4974058;28;20184;-70
2023/05/08 01:02:25;;;;;;;5.15;4.65;;;17.10;99.90;;;;;;4972693;28;20181;-67
2023/05/08 01:04:54;;;;;;;4.85;4.43;;;17.10;99.90;;;;;;4972078;28;20215;-67
2023/05/08 01:07:22;;;;;;;5.72;5.00;;;17.10;99.90;;;;;;4960596;28;20187;-67
2023/05/08 01:09:48;;;;;;;5.10;4.60;;;17.10;99.90;;;;;;4951367;28;20228;-67
2023/05/08 01:12:22;;;;;;;5.75;4.63;;;17.10;99.90;;;;;;4972158;28;20208;-67
2023/05/08 01:15:28;;;;;;;4.93;4.50;;;17.10;99.90;;;;;;4954562;28;20180;-68
2023/05/08 01:18:15;;;;;;;5.07;4.57;;;17.10;99.90;;;;;;4955680;29;20224;-67
2023/05/08 01:21:05;;;;;;;5.22;4.72;;;17.10;99.90;;;;;;4968045;28;20187;-67
2023/05/08 01:24:08;;;;;;;5.45;4.90;;;17.10;99.90;;;;;;4966302;28;20200;-67
2023/05/08 01:27:14;;;;;;;5.15;4.65;;;17.10;99.90;;;;;;4951408;28;20184;-67
2023/05/08 01:30:22;;;;;;;4.93;4.43;;;17.10;99.90;;;;;;4946045;29;20221;-67
2023/05/08 01:33:06;;;;;;;4.57;4.18;;;17.00;99.90;;;;;;4966160;28;20203;-67
2023/05/08 01:35:38;;;;;;;4.70;4.25;;;17.00;99.90;;;;;;4956459;28;20188;-67
2023/05/08 01:38:14;;;;;;;4.72;4.30;;;17.00;99.90;;;;;;4969020;28;20205;-67
2023/05/08 01:40:43;;;;;;;5.45;4.80;;;17.00;99.90;;;;;;4951169;29;20272;-67
2023/05/08 01:43:29;;;;;;;5.78;4.40;;;17.00;99.90;;;;;;4951172;28;20171;-67
2023/05/08 01:45:58;;;;;;;5.22;4.72;;;17.00;99.90;;;;;;4947963;29;20185;-67
2023/05/08 01:48:33;;;;;;;5.03;4.53;;;17.10;99.90;;;;;;4961969;28;20188;-67
2023/05/08 01:51:10;;;;;;;5.72;4.50;;;17.00;99.90;;;;;;4951915;28;20203;-67
2023/05/08 01:53:51;;;;;;;5.47;4.50;;;17.00;99.90;;;;;;4970158;28;20504;-67
2023/05/08 01:56:22;;;;;;;5.47;4.65;;;17.00;99.90;;;;;;4966330;28;20208;-67
2023/05/08 01:58:53;;;;;;;5.63;5.10;;;17.00;99.90;;;;;;4953534;28;20486;-67
2023/05/08 02:01:24;;;;;;;5.10;4.60;;;17.00;99.90;;;;;;4968156;28;20216;-67
2023/05/08 02:03:54;;;;;;;5.05;4.35;;;17.00;99.90;;;;;;4954541;28;20185;-67
2023/05/08 02:06:25;;;;;;;4.68;4.22;;;17.00;99.90;;;;;;4949443;28;20181;-67
2023/05/08 02:08:56;;;;;;;5.38;3.92;;;17.00;99.90;;;;;;4967391;28;20215;-67
2023/05/08 02:11:23;;;;;;;5.65;4.90;;;17.00;99.90;;;;;;4948348;29;20262;-67
2023/05/08 02:13:51;;;;;;;6.40;5.30;;;17.00;99.90;;;;;;4963365;28;20220;-67
2023/05/08 02:16:20;;;;;;;5.35;4.85;;;17.00;99.90;;;;;;4960382;28;20205;-67
2023/05/08 02:18:51;;;;;;;6.45;5.35;;;17.00;99.90;;;;;;4950099;28;20228;-67
2023/05/08 02:21:20;;;;;;;6.13;5.30;;;17.00;99.90;;;;;;4954273;29;20260;-67
2023/05/08 02:23:53;;;;;;;5.25;4.75;;;17.00;99.90;;;;;;4966654;28;20189;-67
2023/05/08 02:26:25;;;;;;;5.70;4.93;;;17.00;99.90;;;;;;4962979;28;20173;-67
2023/05/08 02:28:53;;;;;;;5.22;4.72;;;17.00;99.90;;;;;;4957697;28;20319;-67
2023/05/08 02:31:21;;;;;;;5.18;4.68;;;17.00;99.90;;;;;;4971741;28;20228;-67
2023/05/08 02:33:49;;;;;;;5.32;4.82;;;16.90;99.90;;;;;;4956257;29;20185;-67
2023/05/08 02:36:18;;;;;;;5.43;4.93;;;16.90;99.90;;;;;;4969413;28;20212;-67
2023/05/08 02:38:52;;;;;;;5.03;4.53;;;16.90;99.90;;;;;;4952321;28;20288;-67
2023/05/08 02:41:21;;;;;;;5.03;4.55;;;16.90;99.90;;;;;;4972572;28;20175;-67
2023/05/08 02:43:47;;;;;;;6.22;4.80;;;16.90;99.90;;;;;;4971788;28;20232;-67
2023/05/08 02:46:16;;;;;;;5.03;4.53;;;16.80;99.90;;;;;;4956540;29;20192;-67
2023/05/08 02:49:13;;;;;;;4.47;4.07;;;16.80;99.90;;;;;;4972557;28;20180;-67
2023/05/08 02:51:49;;;;;;;4.07;3.47;;;16.90;99.90;;;;;;4972318;28;20200;-67
2023/05/08 02:54:43;;;;;;;4.40;3.47;;;16.80;99.90;;;;;;4956957;28;20327;-67
2023/05/08 02:57:22;;;;;;;3.80;3.20;;;16.80;99.90;;;;;;4955865;29;20212;-67
2023/05/08 03:00:14;;;;;;;4.60;3.72;;;16.80;99.90;;;;;;4972716;28;20259;-67
2023/05/08 03:02:43;;;;;;;4.00;3.40;;;16.80;99.90;;;;;;4949736;28;20244;-67
2023/05/08 03:05:45;;;;;;;3.65;3.30;;;16.70;99.90;;;;;;4937113;29;20268;-67
2023/05/08 03:08:17;;;;;;;5.05;3.95;;;16.70;99.90;;;;;;4937941;29;20184;-67
2023/05/08 03:10:50;;;;;;;4.68;3.55;;;16.70;99.90;;;;;;4972270;28;20208;-67
2023/05/08 03:13:19;;;;;;;3.88;3.45;;;16.70;99.90;;;;;;4970668;28;20185;-67
2023/05/08 03:15:52;;;;;;;5.35;3.88;;;16.70;99.90;;;;;;4970245;28;20177;-67
2023/05/08 03:18:19;;;;;;;5.20;4.00;;;16.70;99.90;;;;;;4963227;28;20317;-67
2023/05/08 03:20:56;;;;;;;4.38;3.90;;;16.70;99.90;;;;;;4969700;28;20238;-67
2023/05/08 03:23:25;;;;;;;4.22;3.83;;;16.70;99.90;;;;;;4965862;28;20291;-67
2023/05/08 03:25:52;;;;;;;4.80;4.30;;;16.70;99.90;;;;;;4968351;28;20184;-67
2023/05/08 03:28:20;;;;;;;4.55;4.15;;;16.60;99.90;;;;;;4952295;28;20181;-67
2023/05/08 03:30:49;;;;;;;6.65;5.30;;;16.70;99.90;;;;;;4951621;28;20349;-67
2023/05/08 03:33:16;;;;;;;16.00;12.65;;;16.70;99.90;;;;;;4957514;28;20188;-67
2023/05/08 03:35:44;;;;;;;8.77;7.88;;;16.60;99.90;;;;;;4974257;28;20360;-67
2023/05/08 03:38:11;;;;;;;8.18;6.47;;;16.70;99.90;;;;;;4953188;28;20198;-67
2023/05/08 03:40:45;;;;;;;7.55;6.22;;;16.60;99.90;;;;;;4967480;28;20177;-67
2023/05/08 03:43:11;;;;;;;7.43;6.43;;;16.60;99.90;;;;;;4954071;28;20207;-67
2023/05/08 03:45:40;;;;;;;5.72;5.13;;;16.70;99.90;;;;;;4970781;28;20185;-68
2023/05/08 03:48:08;;;;;;;14.05;12.50;;;16.70;99.90;;;;;;4955230;29;20315;-67
2023/05/08 03:50:35;;;;;;;8.30;6.93;;;16.70;99.90;;;;;;4969743;28;20267;-67
2023/05/08 03:53:01;;;;;;;7.25;6.55;;;16.70;99.90;;;;;;4968384;28;20184;-67
2023/05/08 03:55:27;;;;;;;5.93;5.32;;;16.60;99.90;;;;;;4950536;29;20189;-67
2023/05/08 03:57:52;;;;;;;6.80;5.43;;;16.60;99.90;;;;;;4972844;28;20216;-67
2023/05/08 04:00:35;;;;;;;6.40;5.80;;;16.60;99.90;;;;;;4953089;29;20203;-67
2023/05/08 04:03:16;;;;;;;12.43;9.60;;;16.60;99.90;;;;;;4966875;28;20204;-66
2023/05/08 04:05:58;;;;;;;10.60;7.45;;;16.60;99.90;;;;;;4970878;28;20200;-65
2023/05/08 04:08:34;;;;;;;6.70;6.00;;;16.60;99.90;;;;;;4969379;28;20180;-64
2023/05/08 04:11:08;;;;;;;6.05;5.45;;;16.60;99.90;;;;;;4966807;28;20209;-65
2023/05/08 04:13:44;;;;;;;5.30;4.55;;;16.50;99.90;;;;;;4954173;29;20184;-65
2023/05/08 04:16:20;;;;;;;6.50;5.38;;;16.60;99.90;;;;;;4965135;28;20204;-65
2023/05/08 04:18:48;;;;;;;6.25;4.80;;;16.60;99.90;;;;;;4968304;28;20203;-65
2023/05/08 04:21:21;;;;;;;5.15;4.32;;;16.60;99.90;;;;;;4951566;28;20236;-62
2023/05/08 04:23:54;;;;;;;8.75;7.25;;;16.60;99.90;;;;;;4968905;28;20210;-65
2023/05/08 04:26:28;;;;;;;6.07;5.15;;;16.60;99.90;;;;;;4968976;28;20196;-65
2023/05/08 04:28:54;;;;;;;6.10;5.50;;;16.50;99.90;;;;;;4974356;28;20420;-64
2023/05/08 04:31:20;;;;;;;5.82;5.22;;;16.60;99.90;;;;;;4973148;28;20255;-61
2023/05/08 04:33:52;;;;;;;6.15;5.50;;;16.60;99.90;;;;;;4963880;28;20248;-65
2023/05/08 04:36:20;;;;;;;6.55;5.55;;;16.50;99.90;;;;;;4957255;29;20204;-66
2023/05/08 04:38:48;;;;;;;5.38;4.88;;;16.60;99.90;;;;;;4971344;28;20211;-65
2023/05/08 04:41:14;;;;;;;6.18;5.55;;;16.60;99.90;;;;;;4970761;28;20192;-66
2023/05/08 04:43:40;;;;;;;5.28;4.78;;;16.60;99.90;;;;;;4950131;29;20208;-66
2023/05/08 04:46:09;;;;;;;6.10;5.50;;;16.60;99.90;;;;;;4959779;28;20207;-67
2023/05/08 04:48:34;;;;;;;7.13;5.53;;;16.60;99.90;;;;;;4973629;28;20181;-66
2023/05/08 04:51:00;;;;;;;5.32;4.82;;;16.60;99.90;;;;;;4957520;29;20540;-67
2023/05/08 04:53:26;;;;;;;7.20;5.38;;;16.50;99.90;;;;;;4957880;29;20184;-67
2023/05/08 04:55:54;;;;;;;5.35;4.85;;;16.60;99.90;;;;;;4973943;28;20176;-68
2023/05/08 04:58:19;;;;;;;5.28;4.57;;;16.50;99.90;;;;;;4958111;28;20289;-67
2023/05/08 05:00:47;;;;;;;5.05;4.55;;;16.50;99.90;;;;;;4969907;28;20232;-66
2023/05/08 05:03:13;;;;;;;5.28;4.78;;;16.60;99.90;;;;;;4976655;28;20180;-67
2023/05/08 05:05:39;;;;;;;5.18;4.68;;;16.60;99.90;;;;;;4954346;29;20185;-68
2023/05/08 05:08:07;;;;;;;5.65;4.97;;;16.60;99.90;;;;;;4969008;28;20192;-68
2023/05/08 05:10:38;;;;;;;5.50;4.90;;;16.60;99.90;;;;;;4957354;28;20204;-66
2023/05/08 05:13:06;;;;;;;6.40;5.50;;;16.60;99.90;;;;;;4967010;28;20218;-67
2023/05/08 05:15:35;;;;;;;6.57;5.35;;;16.60;99.90;;;;;;4963536;28;20181;-68
2023/05/08 05:18:00;;;;;;;6.15;5.55;;;16.60;99.90;;;;;;4950867;29;20215;-66
2023/05/08 05:20:28;;;;;;;6.20;5.60;;;16.60;99.90;;;;;;4967519;28;20189;-68
2023/05/08 05:22:58;;;;;;;8.00;5.88;;;16.60;99.90;;;;;;4951642;29;20269;-68
2023/05/08 05:25:26;;;;;;;6.07;5.47;;;16.70;99.90;;;;;;4956199;28;20240;-67
2023/05/08 05:27:54;;;;;;;6.40;5.80;;;16.70;99.90;;;;;;4966293;28;20235;-67
2023/05/08 05:30:22;;;;;;;6.57;5.82;;;16.70;99.90;;;;;;4971677;28;20244;-68
2023/05/08 05:32:50;;;;;;;7.53;5.88;;;16.70;99.90;;;;;;4972993;28;20209;-67
2023/05/08 05:35:16;;;;;;;7.72;6.50;;;16.70;99.90;;;;;;4969261;28;20456;-65
2023/05/08 05:37:42;;;;;;;7.43;6.50;;;16.70;99.90;;;;;;4965103;28;20264;-66
2023/05/08 05:40:09;;;;;;;6.75;6.07;;;16.70;99.90;;;;;;4955171;28;20209;-66
2023/05/08 05:42:37;;;;;;;6.80;6.15;;;16.70;99.90;;;;;;4957587;28;20182;-65
2023/05/08 05:45:03;;;;;;;6.80;6.10;;;16.70;99.90;;;;;;4968910;28;20235;-64
2023/05/08 05:47:29;;;;;;;7.10;6.25;;;16.70;99.90;;;;;;4968874;28;20193;-67
2023/05/08 05:49:55;;;;;;;6.70;6.10;;;16.70;99.90;;;;;;4953021;29;20247;-68
2023/05/08 05:52:26;;;;;;;7.78;6.90;;;16.70;99.90;;;;;;4946151;28;20189;-64
2023/05/08 05:54:51;;;;;;;7.05;6.32;;;16.70;99.90;;;;;;4971055;28;20180;-68
2023/05/08 05:57:21;;;;;;;7.20;6.50;;;16.70;99.90;;;;;;4967141;28;20212;-66
2023/05/08 05:59:47;;;;;;;8.82;6.57;;;16.70;99.90;;;;;;4951163;29;20173;-67
2023/05/08 06:02:17;;;;;;;6.65;6.05;;;16.70;99.90;;;;;;4954762;28;20176;-68
2023/05/08 06:04:48;;;;;;;7.53;6.57;;;16.70;99.90;;;;;;4967085;28;20233;-68
2023/05/08 06:07:14;;;;;;;6.35;5.75;;;16.70;99.90;;;;;;4965765;28;20185;-66
2023/05/08 06:09:44;;;;;;;7.55;6.85;;;16.70;99.90;;;;;;4952617;29;20192;-67
2023/05/08 06:12:10;;;;;;;7.45;6.72;;;16.70;99.90;;;;;;4970798;28;20208;-68
2023/05/08 06:14:36;;;;;;;7.50;6.50;;;16.70;99.90;;;;;;4955012;28;20280;-66
2023/05/08 06:17:02;;;;;;;8.27;7.47;;;16.80;99.90;;;;;;4954318;29;20204;-68
2023/05/08 06:19:29;;;;;;;7.70;7.00;;;16.80;99.90;;;;;;4957789;28;20187;-66
2023/05/08 06:21:55;;;;;;;7.80;7.10;;;16.80;99.90;;;;;;4968582;28;20185;-68
2023/05/08 06:24:24;;;;;;;7.97;7.13;;;16.80;99.90;;;;;;4944616;28;20177;-67
2023/05/08 06:26:49;;;;;;;7.78;6.97;;;16.80;99.90;;;;;;4970800;28;20272;-68
2023/05/08 06:29:17;;;;;;;8.02;7.22;;;16.90;99.90;;;;;;4967077;28;20418;-68
2023/05/08 06:31:45;;;;;;;8.02;7.00;;;16.90;99.90;;;;;;4944041;28;20215;-65
2023/05/08 06:34:15;;;;;;;7.45;6.78;;;16.90;99.90;;;;;;4970592;28;20181;-67
2023/05/08 06:36:43;;;;;;;8.65;6.82;;;17.00;99.90;;;;;;4955598;29;20209;-67
2023/05/08 06:39:11;;;;;;;8.07;7.28;;;17.00;99.90;;;;;;4971386;28;20204;-68
2023/05/08 06:41:36;;;;;;;8.05;7.10;;;17.00;99.90;;;;;;4954473;28;20181;-68
2023/05/08 06:44:02;;;;;;;7.88;7.13;;;17.00;99.90;;;;;;4954887;29;20187;-66
2023/05/08 06:46:28;;;;;;;9.07;7.70;;;17.10;99.90;;;;;;4954345;28;20188;-64
2023/05/08 06:48:54;;;;;;;8.05;7.25;;;17.10;99.90;;;;;;4952939;28;20185;-67
2023/05/08 06:51:22;;;;;;;8.13;7.25;;;17.10;99.90;;;;;;4973333;28;20185;-68
2023/05/08 06:53:47;;;;;;;8.85;7.55;;;17.00;99.90;;;;;;4942568;29;20184;-68
2023/05/08 06:56:15;;;;;;;7.95;7.18;;;17.10;99.90;;;;;;4967943;28;20197;-67
2023/05/08 06:58:41;;;;;;;7.70;7.00;;;17.00;99.90;;;;;;4940802;29;20188;-68
2023/05/08 07:01:07;;;;;;;10.43;6.80;;;17.10;99.90;;;;;;4937108;28;20185;-66
2023/05/08 07:03:34;;;;;;;7.40;6.70;;;17.00;99.90;;;;;;4963375;28;20177;-66
2023/05/08 07:06:02;;;;;;;7.72;6.93;;;17.00;99.90;;;;;;4974993;28;20338;-68
2023/05/08 07:08:29;;;;;;;7.68;6.93;;;17.10;99.90;;;;;;4958437;29;20208;-67
2023/05/08 07:10:57;;;;;;;8.25;7.43;;;17.10;99.90;;;;;;4959206;29;20200;-65
2023/05/08 07:13:25;;;;;;;8.25;7.45;;;17.10;99.90;;;;;;4958477;29;20212;-68
2023/05/08 07:15:50;;;;;;;8.07;7.32;;;17.20;99.90;;;;;;4972274;28;20502;-65
2023/05/08 07:18:16;;;;;;;8.23;7.43;;;17.20;99.90;;;;;;4941841;29;20285;-69
2023/05/08 07:20:42;;;;;;;7.85;7.07;;;17.20;99.90;;;;;;4973190;28;20196;-68
2023/05/08 07:23:08;;;;;;;9.40;7.50;;;17.20;99.90;;;;;;4975450;28;20177;-68
2023/05/08 07:25:34;;;;;;;8.82;7.93;;;17.30;99.90;;;;;;4964099;28;20400;-67
2023/05/08 07:28:00;;;;;;;8.20;7.40;;;17.30;99.90;;;;;;4972478;28;20177;-68
2023/05/08 07:30:25;;;;;;;8.15;7.35;;;17.30;99.90;;;;;;4952968;29;20185;-67
2023/05/08 07:32:53;;;;;;;8.63;7.82;;;17.40;99.90;;;;;;4950820;29;20294;-68
2023/05/08 07:35:21;;;;;;;8.30;7.50;;;17.40;99.90;;;;;;4951786;29;20268;-67
2023/05/08 07:37:49;;;;;;;8.50;7.35;;;17.50;99.90;;;;;;4970075;28;20239;-66
2023/05/08 07:40:15;;;;;;;8.23;7.25;;;17.60;99.90;;;;;;4969405;28;20204;-65
2023/05/08 07:42:41;;;;;;;8.20;7.40;;;17.70;99.90;;;;;;4973625;28;20180;-65
2023/05/08 07:45:08;;;;;;;8.73;7.93;;;17.70;99.90;;;;;;4973423;28;20184;-64
2023/05/08 07:47:34;;;;;;;8.88;7.97;;;17.80;99.90;;;;;;4967478;28;20212;-65
2023/05/08 07:50:00;;;;;;;8.55;7.75;;;17.90;99.90;;;;;;4970063;28;20174;-66
2023/05/08 07:52:25;;;;;;;9.35;7.30;;;18.00;99.90;;;;;;4974268;28;20185;-66
2023/05/08 07:54:53;;;;;;;8.23;7.43;;;18.00;99.90;;;;;;4973441;28;20293;-60
2023/05/08 07:57:19;;;;;;;7.70;6.90;;;18.10;99.90;;;;;;4970132;28;20200;-66
2023/05/08 07:59:44;;;;;;;7.18;6.38;;;18.10;99.90;;;;;;4952698;29;20187;-65
2023/05/08 08:02:10;;;;;;;7.55;6.85;;;18.20;99.90;;;;;;4965695;28;20177;-66
2023/05/08 08:04:38;;;;;;;9.02;7.20;;;18.20;99.90;;;;;;4974959;28;20192;-66
2023/05/08 08:07:04;;;;;;;7.90;7.20;;;18.20;99.90;;;;;;4958503;28;20208;-66
2023/05/08 08:09:30;;;;;;;7.93;7.13;;;18.30;99.90;;;;;;4958550;28;20243;-66
2023/05/08 08:11:55;;;;;;;7.43;6.72;;;18.30;99.90;;;;;;4952423;29;20260;-64
2023/05/08 08:14:23;;;;;;;7.90;7.13;;;18.40;99.90;;;;;;4958206;29;20204;-66
2023/05/08 08:16:51;;;;;;;7.68;6.90;;;18.40;99.90;;;;;;4956733;28;20376;-66
2023/05/08 08:19:18;;;;;;;7.68;6.95;;;18.40;99.90;;;;;;4973543;28;20177;-66
2023/05/08 08:21:45;;;;;;;7.82;6.72;;;18.40;99.90;;;;;;4958051;29;20181;-66
2023/05/08 08:24:10;;;;;;;7.50;6.68;;;18.40;99.90;;;;;;4949706;28;20177;-66
2023/05/08 08:26:38;;;;;;;8.57;7.68;;;18.50;99.90;;;;;;4973283;28;20201;-65
2023/05/08 08:29:06;;;;;;;7.38;6.68;;;18.50;99.90;;;;;;4970510;28;20181;-66
2023/05/08 08:31:31;;;;;;;7.75;7.05;;;18.50;99.90;;;;;;4939525;29;20189;-66
2023/05/08 08:33:59;;;;;;;7.22;6.53;;;18.50;99.90;;;;;;4938930;29;20185;-66
2023/05/08 08:36:27;;;;;;;7.90;6.53;;;18.50;99.90;;;;;;4949791;29;20212;-66
2023/05/08 08:38:53;;;;;;;8.50;6.75;;;18.40;99.90;;;;;;4974285;28;20200;-67
2023/05/08 08:41:18;;;;;;;7.63;6.82;;;18.40;99.90;;;;;;4974446;28;20184;-67
2023/05/08 08:43:46;;;;;;;7.97;6.68;;;18.40;99.90;;;;;;4974630;28;20180;-66
2023/05/08 08:46:14;;;;;;;7.60;6.80;;;18.40;99.90;;;;;;4993768;28;20200;-67
2023/05/08 08:48:44;;;;;;;7.32;6.63;;;18.40;99.90;;;;;;4976820;28;20209;-67
2023/05/08 08:51:27;;;;;;;7.32;6.63;;;18.50;99.90;;;;;;4968847;28;20203;-67
2023/05/08 08:54:10;;;;;;;8.10;7.30;;;18.50;99.90;;;;;;4967421;28;20172;-66
2023/05/08 08:56:43;;;;;;;8.07;7.28;;;18.50;99.90;;;;;;4974328;28;20200;-67
2023/05/08 08:59:10;;;;;;;7.55;6.85;;;18.50;99.90;;;;;;4957162;29;20196;-67
2023/05/08 09:01:40;;;;;;;9.60;7.25;;;18.60;99.90;;;;;;4958028;29;20256;-67
2023/05/08 09:04:06;;;;;;;7.75;6.40;;;18.50;99.90;;;;;;4963183;28;20176;-66
2023/05/08 09:06:37;;;;;;;7.55;6.85;;;18.60;99.90;;;;;;4974087;28;20176;-67
2023/05/08 09:09:06;;;;;;;8.45;7.20;;;18.60;99.90;;;;;;4957041;28;20173;-66
2023/05/08 09:11:31;;;;;;;8.43;7.45;;;18.60;99.90;;;;;;4972433;28;20208;-67
2023/05/08 09:14:00;;;;;;;8.18;7.40;;;18.60;99.90;;;;;;4963636;28;20229;-67
2023/05/08 09:16:27;;;;;;;8.13;7.07;;;18.50;99.90;;;;;;4949501;29;20212;-67
2023/05/08 09:18:53;;;;;;;8.32;7.47;;;18.50;99.90;;;;;;4956050;28;20192;-67
2023/05/08 09:21:22;;;;;;;8.63;7.72;;;18.50;99.90;;;;;;4953305;29;20181;-66
2023/05/08 09:23:56;;;;;;;7.55;6.78;;;18.50;99.90;;;;;;4963216;28;20205;-66
2023/05/08 09:26:35;;;;;;;8.43;7.63;;;18.50;99.90;;;;;;4946788;28;20438;-66
2023/05/08 09:29:16;;;;;;;7.97;7.18;;;18.50;99.90;;;;;;4969507;28;20184;-66
2023/05/08 09:31:45;;;;;;;7.80;7.10;;;18.50;99.90;;;;;;4972224;28;20180;-66
2023/05/08 09:34:32;;;;;;;7.65;6.95;;;18.50;99.90;;;;;;4969340;28;20236;-66
2023/05/08 09:37:03;;;;;;;7.95;7.15;;;18.50;99.90;;;;;;4942531;28;20204;-66
2023/05/08 09:39:29;;;;;;;7.82;7.00;;;18.50;99.90;;;;;;4956868;29;20188;-64
2023/05/08 09:42:02;;;;;;;8.48;7.57;;;18.50;99.90;;;;;;4959232;28;20181;-67
2023/05/08 09:44:41;;;;;;;7.80;7.10;;;18.50;99.90;;;;;;4954255;28;20216;-64
2023/05/08 09:47:18;;;;;;;8.48;7.65;;;18.50;99.90;;;;;;4955879;28;20192;-66
2023/05/08 09:50:05;;;;;;;8.13;7.32;;;18.50;99.90;;;;;;4962229;28;20204;-60
2023/05/08 09:52:32;;;;;;;7.65;6.85;;;18.50;99.90;;;;;;4969136;28;20276;-66
2023/05/08 09:55:06;;;;;;;7.63;6.93;;;18.50;99.90;;;;;;4967955;28;20199;-64
2023/05/08 09:57:39;;;;;;;8.10;6.93;;;18.50;99.90;;;;;;4957770;28;20211;-66
2023/05/08 10:00:09;;;;;;;7.13;6.38;;;18.50;99.90;;;;;;4955342;29;20196;-66
2023/05/08 10:02:41;;;;;;;7.88;7.07;;;18.50;99.90;;;;;;4966201;28;20214;-66
2023/05/08 10:05:35;;;;;;;7.30;6.60;;;18.50;99.90;;;;;;4939931;29;20196;-66
2023/05/08 10:08:22;;;;;;;6.65;6.05;;;18.50;99.90;;;;;;4941835;29;20216;-66
2023/05/08 10:10:48;;;;;;;6.90;6.20;;;18.50;99.90;;;;;;4968842;28;20192;-67
2023/05/08 10:13:14;;;;;;;7.43;6.72;;;18.50;99.90;;;;;;4955791;28;20210;-65
2023/05/08 10:15:43;;;;;;;6.78;6.15;;;18.40;99.90;;;;;;4969488;28;20256;-66
2023/05/08 10:18:10;;;;;;;8.02;6.30;;;18.40;99.90;;;;;;4943069;28;20346;-66
2023/05/08 10:20:41;;;;;;;6.60;6.00;;;18.30;99.90;;;;;;4952958;29;20181;-67
2023/05/08 10:23:10;;;;;;;7.85;6.95;;;18.30;99.90;;;;;;4970315;28;20177;-66
2023/05/08 10:25:42;;;;;;;7.35;6.57;;;18.30;99.90;;;;;;4969114;28;20290;-67
2023/05/08 10:28:08;;;;;;;7.80;6.85;;;18.20;99.90;;;;;;4956250;29;20219;-66
2023/05/08 10:30:41;;;;;;;7.95;7.15;;;18.20;99.90;;;;;;4969047;28;20181;-66
2023/05/08 10:33:09;;;;;;;6.80;6.20;;;18.10;99.90;;;;;;4937274;29;20169;-66
2023/05/08 10:35:36;;;;;;;7.68;6.88;;;18.10;99.90;;;;;;4955157;28;20297;-67
2023/05/08 10:38:03;;;;;;;7.80;6.97;;;18.10;99.90;;;;;;4972538;28;20204;-66
2023/05/08 10:40:29;;;;;;;7.53;6.70;;;18.10;99.90;;;;;;4972263;28;20510;-66
2023/05/08 10:42:56;;;;;;;8.00;7.20;;;18.00;99.90;;;;;;4979098;28;20226;-66
2023/05/08 10:45:23;;;;;;;8.15;7.35;;;18.00;99.90;;;;;;4977727;28;20177;-67
2023/05/08 10:48:17;;;;;;;9.20;8.23;;;18.00;99.90;;;;;;4978818;28;20248;-66
2023/05/08 10:50:46;;;;;;;8.00;7.25;;;18.00;99.90;;;;;;4958329;28;20203;-66
2023/05/08 10:53:17;;;;;;;8.32;7.40;;;18.00;99.90;;;;;;4978774;28;20196;-65
2023/05/08 10:55:51;;;;;;;8.23;7.40;;;18.00;99.90;;;;;;4960856;28;20187;-66
2023/05/08 10:58:23;;;;;;;8.65;7.75;;;18.00;99.90;;;;;;4961065;29;20211;-65
2023/05/08 11:00:51;;;;;;;8.07;7.28;;;18.00;99.90;;;;;;4958912;28;20187;-67
2023/05/08 11:03:27;;;;;;;9.07;8.13;;;18.10;99.90;;;;;;4968463;28;20186;-67
2023/05/08 11:05:55;;;;;;;9.20;8.30;;;18.20;99.90;;;;;;4966937;28;20243;-68
2023/05/08 11:08:26;;;;;;;8.77;7.88;;;18.20;99.90;;;;;;4961485;28;20200;-68
2023/05/08 11:11:03;;;;;;;8.25;7.45;;;18.30;99.90;;;;;;4970098;28;20189;-67
2023/05/08 11:13:34;;;;;;;8.73;7.82;;;18.40;99.90;;;;;;4957976;28;20206;-63
2023/05/08 11:16:00;;;;;;;8.43;7.60;;;18.50;99.90;;;;;;4972258;28;20181;-67
2023/05/08 11:18:27;;;;;;;8.27;7.03;;;18.60;99.90;;;;;;4961464;28;20299;-66
2023/05/08 11:21:04;;;;;;;8.23;7.43;;;18.70;99.90;;;;;;4975051;28;20231;-68
2023/05/08 11:23:35;;;;;;;11.05;7.68;;;18.80;99.90;;;;;;4961514;29;20176;-66
2023/05/08 11:26:10;;;;;;;7.68;6.97;;;18.90;99.90;;;;;;4977175;28;20283;-68
2023/05/08 11:28:52;;;;;;;8.07;7.28;;;19.00;99.90;;;;;;4956690;29;20175;-67
2023/05/08 11:31:17;;;;;;;7.40;6.70;;;19.10;99.90;;;;;;4968904;28;20197;-67
2023/05/08 11:33:45;;;;;;;7.82;7.13;;;19.20;99.90;;;;;;4967584;28;20183;-67
2023/05/08 11:36:24;;;;;;;8.05;7.20;;;19.30;99.90;;;;;;4954569;28;20181;-68
2023/05/08 11:39:11;;;;;;;8.82;7.15;;;19.40;99.90;;;;;;4959151;28;20227;-67
2023/05/08 11:41:38;;;;;;;8.25;7.45;;;19.50;99.90;;;;;;4960571;28;20332;-67
2023/05/08 11:44:08;;;;;;;8.32;7.43;;;19.50;99.90;;;;;;4950538;29;20201;-67
2023/05/08 11:46:56;;;;;;;8.02;7.20;;;19.60;99.90;;;;;;4974345;28;20199;-67
2023/05/08 11:49:24;;;;;;;9.30;6.85;;;19.70;99.90;;;;;;4962922;28;20180;-67
2023/05/08 11:51:54;;;;;;;7.53;6.82;;;19.70;99.90;;;;;;4973485;28;20201;-67
2023/05/08 11:54:21;;;;;;;8.13;7.32;;;19.80;99.90;;;;;;4958150;28;20197;-65
2023/05/08 11:56:56;;;;;;;8.00;7.30;;;19.80;99.90;;;;;;4959888;28;20205;-68
2023/05/08 11:59:24;;;;;;;8.15;7.35;;;19.90;99.90;;;;;;4971237;28;20173;-67
2023/05/08 12:01:50;;;;;;;8.73;7.82;;;20.00;99.90;;;;;;4956796;29;20173;-67
2023/05/08 12:04:16;;;;;;;8.30;6.80;;;20.10;99.90;;;;;;4974719;28;20255;-67
2023/05/08 12:06:42;;;;;;;8.00;7.20;;;20.10;99.90;;;;;;4960832;28;20196;-67
2023/05/08 12:09:14;;;;;;;7.60;6.90;;;20.30;99.90;;;;;;4975203;28;20216;-67
2023/05/08 12:11:42;;;;;;;7.45;6.75;;;20.40;99.90;;;;;;4957809;29;20176;-67
2023/05/08 12:14:08;;;;;;;7.13;6.43;;;20.60;99.90;;;;;;4969994;28;20185;-66
2023/05/08 12:16:40;;;;;;;7.43;6.53;;;20.80;99.90;;;;;;4972977;28;20212;-66
2023/05/08 12:19:13;;;;;;;6.82;6.22;;;20.90;99.90;;;;;;4953124;28;20209;-66
2023/05/08 12:21:48;;;;;;;7.95;7.15;;;21.10;99.90;;;;;;4968389;28;20188;-68
2023/05/08 12:24:24;;;;;;;8.20;7.20;;;21.30;99.90;;;;;;4953683;28;20184;-67
2023/05/08 12:26:54;;;;;;;7.05;6.35;;;21.40;99.90;;;;;;4972823;28;20251;-67
2023/05/08 12:29:20;;;;;;;7.20;6.53;;;21.60;99.90;;;;;;4958719;28;20201;-67
2023/05/08 12:31:48;;;;;;;7.20;6.60;;;21.70;99.90;;;;;;4969527;28;20203;-66
2023/05/08 12:34:20;;;;;;;6.78;5.90;;;21.90;99.90;;;;;;4959299;28;20177;-67
2023/05/08 12:36:50;;;;;;;7.35;6.65;;;22.00;99.90;;;;;;4957207;28;20216;-67
2023/05/08 12:39:17;;;;;;;7.10;6.40;;;22.20;99.90;;;;;;4958115;29;20181;-67
2023/05/08 12:41:53;;;;;;;6.53;5.93;;;22.40;99.90;;;;;;4974415;28;20203;-68
2023/05/08 12:44:23;;;;;;;7.22;6.57;;;22.50;99.90;;;;;;4974345;28;20172;-68
2023/05/08 12:46:53;;;;;;;7.18;6.57;;;22.60;99.90;;;;;;4974125;28;20173;-67
2023/05/08 12:49:27;;;;;;;6.70;6.10;;;22.80;99.90;;;;;;4973274;28;20192;-66
2023/05/08 12:52:16;;;;;;;6.22;5.72;;;23.00;99.90;;;;;;4974063;28;20172;-66
2023/05/08 12:54:47;;;;;;;6.65;6.05;;;23.20;99.90;;;;;;4954076;28;20193;-68
2023/05/08 12:57:18;;;;;;;5.60;5.10;;;23.40;99.90;;;;;;4950329;29;20207;-69
2023/05/08 12:59:47;;;;;;;5.78;5.28;;;23.50;99.90;;;;;;4974390;28;20172;-67
2023/05/08 13:02:22;;;;;;;6.10;5.50;;;23.50;99.90;;;;;;4962092;28;20177;-67